Time;durP1;ratioP1;P1;durP2;ratioP2;P2;SDS_P1;SDS_P2;PMS_P1;PMS_P2;Temp;Humidity;BMP_temperature;BMP_pressure;BME280_temperature;BME280_humidity;BME280_pressure;Samples;Min_cycle;Max_cycle;Signal;HPM_P1;HPM_P2
2023/11/20 00:01:02;;;;;;;4.20;4.10;;;23.50;65.40;;;;;;5072116;28;20874;-66
2023/11/20 00:03:29;;;;;;;10.53;4.50;;;23.40;65.30;;;;;;5072150;28;20464;-66
2023/11/20 00:05:56;;;;;;;3.47;3.37;;;23.40;66.10;;;;;;5072074;28;20863;-66
2023/11/20 00:08:23;;;;;;;3.83;3.73;;;23.40;65.30;;;;;;5072054;28;20871;-66
2023/11/20 00:10:50;;;;;;;4.60;4.47;;;23.40;65.20;;;;;;5071787;28;20479;-66
2023/11/20 00:13:17;;;;;;;3.77;3.57;;;23.40;65.10;;;;;;5072143;28;20510;-66
2023/11/20 00:15:45;;;;;;;4.07;3.87;;;23.40;65.10;;;;;;5071965;28;20478;-66
2023/11/20 00:18:12;;;;;;;4.07;3.80;;;23.40;65.00;;;;;;5071811;28;20482;-66
2023/11/20 00:20:39;;;;;;;4.37;4.17;;;23.40;65.10;;;;;;5071860;28;20474;-66
2023/11/20 00:23:06;;;;;;;4.00;3.80;;;23.40;65.00;;;;;;5072008;28;20490;-66
2023/11/20 00:25:33;;;;;;;4.00;3.90;;;23.40;65.00;;;;;;5071716;28;20513;-66
2023/11/20 00:28:00;;;;;;;4.97;4.77;;;23.40;65.20;;;;;;5071818;28;20482;-66
2023/11/20 00:30:27;;;;;;;4.00;3.90;;;23.40;65.10;;;;;;5071998;28;20482;-66
2023/11/20 00:32:55;;;;;;;4.40;4.20;;;23.40;65.10;;;;;;5071589;28;20459;-66
2023/11/20 00:35:22;;;;;;;4.50;4.30;;;23.40;65.10;;;;;;5071637;28;20474;-66
2023/11/20 00:37:49;;;;;;;4.10;3.87;;;23.40;65.20;;;;;;5071745;28;20482;-66
2023/11/20 00:40:18;;;;;;;3.90;3.60;;;23.40;65.20;;;;;;5071748;28;20486;-66
2023/11/20 00:42:45;;;;;;;4.10;4.00;;;23.40;65.10;;;;;;5071541;28;20550;-66
2023/11/20 00:45:11;;;;;;;3.70;3.70;;;23.30;64.80;;;;;;5071528;28;20518;-66
2023/11/20 00:47:38;;;;;;;3.73;3.53;;;23.30;64.70;;;;;;5071652;28;20478;-66
2023/11/20 00:50:07;;;;;;;3.40;3.40;;;23.40;64.90;;;;;;5071677;28;20197;-66
2023/11/20 00:52:35;;;;;;;3.90;3.80;;;23.30;64.70;;;;;;5071481;28;20455;-66
2023/11/20 00:55:09;;;;;;;4.20;4.10;;;23.30;64.80;;;;;;5071503;28;20446;-66
2023/11/20 00:57:37;;;;;;;4.67;4.33;;;23.30;64.90;;;;;;5071664;28;20450;-66
2023/11/20 01:00:06;;;;;;;4.37;4.17;;;23.30;64.80;;;;;;5071485;28;20446;-66
2023/11/20 01:02:33;;;;;;;4.07;3.97;;;23.30;64.90;;;;;;5071283;28;20546;-66
2023/11/20 01:05:00;;;;;;;3.90;3.87;;;23.30;64.90;;;;;;5071338;28;20511;-66
2023/11/20 01:07:28;;;;;;;4.20;4.00;;;23.30;64.80;;;;;;5071554;28;20522;-66
2023/11/20 01:09:55;;;;;;;4.87;4.47;;;23.30;64.90;;;;;;5071411;28;20969;-66
2023/11/20 01:12:22;;;;;;;4.50;4.40;;;23.30;65.00;;;;;;5071311;28;20914;-66
2023/11/20 01:14:49;;;;;;;3.53;3.43;;;23.30;65.70;;;;;;5071534;28;20474;-66
2023/11/20 01:17:16;;;;;;;4.50;4.30;;;23.30;64.90;;;;;;5071486;28;20990;-66
2023/11/20 01:19:44;;;;;;;4.03;3.93;;;23.30;64.90;;;;;;5071331;28;20447;-66
2023/11/20 01:22:10;;;;;;;3.40;3.20;;;23.30;64.90;;;;;;5072414;28;20461;-66
2023/11/20 01:24:39;;;;;;;3.70;3.60;;;23.20;64.80;;;;;;5075151;28;20522;-66
2023/11/20 01:27:06;;;;;;;4.10;4.00;;;23.20;65.00;;;;;;5075305;28;20443;-66
2023/11/20 01:29:33;;;;;;;3.97;3.77;;;23.20;64.90;;;;;;5075077;28;20930;-66
2023/11/20 01:32:00;;;;;;;3.90;3.80;;;23.30;65.00;;;;;;5074917;28;21008;-66
2023/11/20 01:34:27;;;;;;;4.47;4.27;;;23.20;65.00;;;;;;5075292;28;20927;-66
2023/11/20 01:36:54;;;;;;;4.43;4.23;;;23.20;65.00;;;;;;5075018;28;20477;-66
2023/11/20 01:39:21;;;;;;;3.57;3.37;;;23.20;65.20;;;;;;5074786;28;20501;-66
2023/11/20 01:41:49;;;;;;;3.63;3.53;;;23.20;65.20;;;;;;5074888;28;20526;-66
2023/11/20 01:44:16;;;;;;;3.40;3.30;;;23.20;65.10;;;;;;5074841;28;20507;-66
2023/11/20 01:46:43;;;;;;;3.60;3.50;;;23.20;65.20;;;;;;5074682;28;20993;-66
2023/11/20 01:49:12;;;;;;;3.93;3.73;;;23.20;65.30;;;;;;5074727;28;20530;-66
2023/11/20 01:51:39;;;;;;;3.30;3.30;;;23.20;65.40;;;;;;5074716;28;20481;-66
2023/11/20 01:54:08;;;;;;;3.83;3.80;;;23.20;65.40;;;;;;5074797;28;20467;-66
2023/11/20 01:56:35;;;;;;;4.47;4.37;;;23.20;65.40;;;;;;5074589;28;20443;-66
2023/11/20 01:59:05;;;;;;;3.70;3.60;;;23.20;65.50;;;;;;5074562;28;20470;-66
2023/11/20 02:01:33;;;;;;;4.10;3.80;;;23.20;65.50;;;;;;5074712;28;20526;-66
2023/11/20 02:04:01;;;;;;;4.27;4.17;;;23.20;65.40;;;;;;5074332;28;20938;-66
2023/11/20 02:06:28;;;;;;;4.33;4.20;;;23.20;65.50;;;;;;5075513;28;20463;-66
2023/11/20 02:08:55;;;;;;;3.93;3.83;;;23.10;65.40;;;;;;5074387;28;20501;-66
2023/11/20 02:11:24;;;;;;;3.87;3.70;;;23.20;65.50;;;;;;5074533;28;20536;-66
2023/11/20 02:13:54;;;;;;;3.97;3.77;;;23.20;65.60;;;;;;5074172;28;21003;-66
2023/11/20 02:16:22;;;;;;;3.60;3.40;;;23.20;65.70;;;;;;5074191;28;20474;-66
2023/11/20 02:18:50;;;;;;;3.47;3.40;;;23.20;65.70;;;;;;5074301;28;20482;-66
2023/11/20 02:21:17;;;;;;;4.47;4.17;;;23.20;65.60;;;;;;5074225;28;20979;-66
2023/11/20 02:23:44;;;;;;;3.90;3.80;;;23.20;65.60;;;;;;5073958;28;20483;-66
2023/11/20 02:26:47;;;;;;;3.77;3.67;;;23.10;65.60;;;;;;5074049;28;20907;-66
2023/11/20 02:29:23;;;;;;;4.03;3.93;;;23.10;65.60;;;;;;5074186;28;20481;-66
2023/11/20 02:31:51;;;;;;;3.90;3.80;;;23.10;65.60;;;;;;5073873;28;20439;-66
2023/11/20 02:34:19;;;;;;;4.57;4.40;;;23.10;65.60;;;;;;5083354;28;20470;-66
2023/11/20 02:36:45;;;;;;;3.27;3.20;;;23.10;65.70;;;;;;5092244;28;20993;-66
2023/11/20 02:39:12;;;;;;;3.73;3.63;;;23.10;65.80;;;;;;5094082;28;20482;-66
2023/11/20 02:41:39;;;;;;;3.83;3.73;;;23.10;65.90;;;;;;5092387;28;20438;-66
2023/11/20 02:44:08;;;;;;;4.40;4.20;;;23.10;65.80;;;;;;5093883;28;20470;-66
2023/11/20 02:46:35;;;;;;;4.47;4.17;;;23.10;65.90;;;;;;5093948;28;21024;-66
2023/11/20 02:49:04;;;;;;;4.23;3.97;;;23.10;65.80;;;;;;5093885;28;20442;-66
2023/11/20 02:51:31;;;;;;;5.37;5.00;;;23.10;65.90;;;;;;5075978;28;20446;-66
2023/11/20 02:53:58;;;;;;;4.80;4.50;;;23.10;65.70;;;;;;5073556;28;20497;-66
2023/11/20 02:56:25;;;;;;;4.20;3.80;;;23.10;65.60;;;;;;5073514;28;20463;-66
2023/11/20 02:58:52;;;;;;;4.87;4.73;;;23.00;65.50;;;;;;5073501;28;20850;-66
2023/11/20 03:01:19;;;;;;;4.77;4.47;;;23.10;65.70;;;;;;5088511;28;20864;-66
2023/11/20 03:03:45;;;;;;;5.43;5.00;;;23.00;65.60;;;;;;5093381;28;20487;-66
2023/11/20 03:06:14;;;;;;;4.17;4.07;;;23.00;65.60;;;;;;5093523;28;20566;-66
2023/11/20 03:08:41;;;;;;;4.83;4.60;;;23.00;65.50;;;;;;5093367;28;20529;-66
2023/11/20 03:11:08;;;;;;;5.07;4.47;;;23.10;65.60;;;;;;5079322;28;20854;-66
2023/11/20 03:13:35;;;;;;;4.73;4.50;;;23.00;65.50;;;;;;5073139;28;20807;-66
2023/11/20 03:16:02;;;;;;;5.27;4.97;;;23.00;65.50;;;;;;5073118;28;20459;-66
2023/11/20 03:18:29;;;;;;;3.37;3.37;;;23.00;65.50;;;;;;5078250;28;20872;-66
2023/11/20 03:20:56;;;;;;;5.87;3.77;;;23.00;65.60;;;;;;5093218;28;20473;-66
2023/11/20 03:23:24;;;;;;;5.10;4.80;;;23.00;65.60;;;;;;5093187;28;20494;-66
2023/11/20 03:25:52;;;;;;;6.07;5.87;;;23.00;65.60;;;;;;5093199;28;20521;-66
2023/11/20 03:28:18;;;;;;;3.77;3.67;;;23.00;65.60;;;;;;5074870;28;20442;-66
2023/11/20 03:30:45;;;;;;;4.67;4.40;;;23.00;65.60;;;;;;5072727;28;20482;-66
2023/11/20 03:33:12;;;;;;;4.20;4.00;;;23.00;65.70;;;;;;5072767;28;20502;-66
2023/11/20 03:35:39;;;;;;;4.60;4.50;;;23.00;65.60;;;;;;5072768;28;20965;-66
2023/11/20 03:38:06;;;;;;;4.37;4.17;;;23.00;65.60;;;;;;5088310;28;20442;-66
2023/11/20 03:40:34;;;;;;;4.40;4.20;;;23.00;65.60;;;;;;5092817;28;20488;-66
2023/11/20 03:43:01;;;;;;;4.77;4.50;;;23.00;65.60;;;;;;5092931;28;20992;-66
2023/11/20 03:45:28;;;;;;;4.00;3.90;;;23.00;65.50;;;;;;5091949;28;20481;-66
2023/11/20 03:47:55;;;;;;;4.40;4.20;;;23.00;65.40;;;;;;5078213;28;20463;-66
2023/11/20 03:50:22;;;;;;;4.77;4.57;;;23.00;66.30;;;;;;5072557;28;20529;-66
2023/11/20 03:52:49;;;;;;;4.23;4.13;;;23.00;65.50;;;;;;5072570;28;20491;-66
2023/11/20 03:55:16;;;;;;;4.37;4.27;;;23.00;65.40;;;;;;5072246;28;20473;-66
2023/11/20 03:57:45;;;;;;;4.80;4.60;;;23.00;65.40;;;;;;5084258;28;20461;-66
2023/11/20 04:00:14;;;;;;;5.03;4.70;;;22.90;65.30;;;;;;5092676;28;20465;-66
2023/11/20 04:02:42;;;;;;;4.77;4.67;;;22.90;65.40;;;;;;5092351;28;20463;-66
2023/11/20 04:05:09;;;;;;;4.07;3.97;;;23.00;65.40;;;;;;5092357;28;20845;-66
2023/11/20 04:07:36;;;;;;;4.57;4.33;;;22.90;65.20;;;;;;5081223;28;20445;-66
2023/11/20 04:10:04;;;;;;;4.00;3.90;;;23.00;65.40;;;;;;5072246;28;20999;-66
2023/11/20 04:12:31;;;;;;;4.67;4.57;;;22.90;65.20;;;;;;5071936;28;20467;-66
2023/11/20 04:14:59;;;;;;;3.83;3.73;;;22.90;65.20;;;;;;5071970;28;20471;-66
2023/11/20 04:17:26;;;;;;;3.93;3.73;;;22.90;65.30;;;;;;5081384;28;20466;-66
2023/11/20 04:19:53;;;;;;;3.90;3.80;;;22.90;65.30;;;;;;5092389;28;20477;-66
2023/11/20 04:22:21;;;;;;;4.37;4.27;;;22.90;65.20;;;;;;5092075;28;21024;-66
2023/11/20 04:24:48;;;;;;;4.37;4.20;;;22.90;65.20;;;;;;5092196;28;20480;-66
2023/11/20 04:27:15;;;;;;;4.03;3.73;;;22.90;65.20;;;;;;5084433;28;20815;-66
2023/11/20 04:29:42;;;;;;;4.57;4.47;;;22.90;65.20;;;;;;5072113;28;20471;-66
2023/11/20 04:32:10;;;;;;;4.57;4.17;;;22.90;65.20;;;;;;5071648;28;20970;-66
2023/11/20 04:34:37;;;;;;;4.90;4.50;;;22.90;65.20;;;;;;5071817;28;20474;-66
2023/11/20 04:37:04;;;;;;;4.20;4.03;;;22.90;65.20;;;;;;5072137;28;20519;-66
2023/11/20 04:39:31;;;;;;;4.43;4.33;;;22.90;65.20;;;;;;5071558;28;20501;-66
2023/11/20 04:41:58;;;;;;;4.20;4.10;;;22.90;65.30;;;;;;5071571;28;20461;-66
2023/11/20 04:44:25;;;;;;;4.10;4.00;;;22.90;65.30;;;;;;5071752;28;20443;-66
2023/11/20 04:46:52;;;;;;;4.30;4.20;;;22.90;66.00;;;;;;5089557;28;20570;-66
2023/11/20 04:49:21;;;;;;;4.63;4.43;;;22.90;65.30;;;;;;5085359;28;20428;-66
2023/11/20 04:51:48;;;;;;;4.20;4.10;;;22.90;65.20;;;;;;5071491;28;20439;-66
2023/11/20 04:54:15;;;;;;;4.07;3.97;;;22.90;65.20;;;;;;5071685;28;20884;-66
2023/11/20 04:56:44;;;;;;;4.30;4.20;;;22.90;65.10;;;;;;5090361;28;20473;-66
2023/11/20 04:59:11;;;;;;;4.23;4.13;;;22.90;65.00;;;;;;5095947;28;20480;-66
2023/11/20 05:01:38;;;;;;;4.63;4.53;;;22.90;65.00;;;;;;5095788;28;20873;-66
2023/11/20 05:04:06;;;;;;;4.23;4.17;;;23.00;65.10;;;;;;5096044;28;20477;-66
2023/11/20 05:06:34;;;;;;;4.60;4.50;;;23.00;65.10;;;;;;5080458;28;20502;-66
2023/11/20 05:09:01;;;;;;;4.73;4.60;;;23.00;65.10;;;;;;5075474;28;20470;-66
2023/11/20 05:11:29;;;;;;;5.30;5.20;;;23.00;65.10;;;;;;5075401;28;20505;-66
2023/11/20 05:13:58;;;;;;;5.20;4.90;;;23.00;65.10;;;;;;5075561;28;20962;-66
2023/11/20 05:16:26;;;;;;;4.83;4.73;;;23.00;65.10;;;;;;5089102;28;20430;-66
2023/11/20 05:18:53;;;;;;;5.13;4.93;;;23.00;65.10;;;;;;5095562;28;20511;-66
2023/11/20 05:21:20;;;;;;;4.70;4.60;;;23.00;65.10;;;;;;5095536;28;20445;-66
2023/11/20 05:23:48;;;;;;;4.90;4.80;;;23.00;65.20;;;;;;5089666;28;21043;-66
2023/11/20 05:26:18;;;;;;;4.90;4.80;;;23.00;65.30;;;;;;5074932;28;20483;-66
2023/11/20 05:28:44;;;;;;;4.97;4.70;;;23.00;65.10;;;;;;5075047;28;20493;-66
2023/11/20 05:31:11;;;;;;;4.90;4.80;;;23.00;65.10;;;;;;5075368;28;20471;-66
2023/11/20 05:33:38;;;;;;;5.07;4.97;;;23.00;65.10;;;;;;5079128;28;20485;-66
2023/11/20 05:36:06;;;;;;;5.17;5.00;;;23.00;65.10;;;;;;5094830;28;20474;-66
2023/11/20 05:38:33;;;;;;;5.93;5.60;;;23.00;65.00;;;;;;5095176;28;20957;-66
2023/11/20 05:41:01;;;;;;;5.97;5.57;;;23.10;65.20;;;;;;5095418;28;20445;-66
2023/11/20 05:43:28;;;;;;;5.80;5.50;;;23.00;65.10;;;;;;5092504;28;20486;-66
2023/11/20 05:45:55;;;;;;;4.90;4.80;;;23.10;65.30;;;;;;5074630;28;20515;-66
2023/11/20 05:48:22;;;;;;;4.87;4.77;;;23.00;65.10;;;;;;5074718;28;20477;-66
2023/11/20 05:50:49;;;;;;;5.07;4.97;;;23.10;65.20;;;;;;5074707;28;20475;-66
2023/11/20 05:53:16;;;;;;;5.20;5.00;;;23.00;65.10;;;;;;5074759;28;21002;-66
2023/11/20 05:55:44;;;;;;;6.50;6.30;;;23.00;65.00;;;;;;5074494;28;20911;-66
2023/11/20 05:58:13;;;;;;;5.80;5.60;;;23.00;65.00;;;;;;5074664;28;20949;-66
2023/11/20 06:00:39;;;;;;;6.70;6.50;;;23.10;65.00;;;;;;5074700;28;20439;-66
2023/11/20 06:03:06;;;;;;;5.90;5.60;;;23.10;65.00;;;;;;5074377;28;20455;-66
2023/11/20 06:05:33;;;;;;;5.30;5.10;;;23.10;64.90;;;;;;5093394;28;20529;-66
2023/11/20 06:07:59;;;;;;;5.50;5.30;;;23.10;64.90;;;;;;5094088;28;21124;-66
2023/11/20 06:10:26;;;;;;;4.93;4.83;;;23.10;64.80;;;;;;5094679;28;20967;-66
2023/11/20 06:12:53;;;;;;;5.30;4.97;;;23.10;64.80;;;;;;5094468;28;20527;-66
2023/11/20 06:15:21;;;;;;;5.30;5.20;;;23.10;64.70;;;;;;5076905;28;20490;-66
2023/11/20 06:17:48;;;;;;;5.17;5.07;;;23.10;64.60;;;;;;5074433;28;20474;-66
2023/11/20 06:20:15;;;;;;;6.97;6.77;;;23.10;64.50;;;;;;5074438;28;20524;-66
2023/11/20 06:22:42;;;;;;;5.37;5.17;;;23.10;64.50;;;;;;5074066;28;20498;-66
2023/11/20 06:25:12;;;;;;;5.33;5.23;;;23.10;64.50;;;;;;5089516;28;20484;-66
2023/11/20 06:27:39;;;;;;;5.33;5.10;;;23.10;64.50;;;;;;5094459;28;20474;-66
2023/11/20 06:30:07;;;;;;;5.07;4.97;;;23.10;64.50;;;;;;5094343;28;20477;-66
2023/11/20 06:32:35;;;;;;;5.10;5.00;;;23.20;64.70;;;;;;5094121;28;20490;-66
2023/11/20 06:35:03;;;;;;;5.77;5.50;;;23.20;64.80;;;;;;5079701;28;20825;-66
2023/11/20 06:37:30;;;;;;;6.00;5.70;;;23.20;65.10;;;;;;5073860;28;20536;-66
2023/11/20 06:39:57;;;;;;;7.50;6.87;;;23.20;65.40;;;;;;5073769;28;20483;-66
2023/11/20 06:42:24;;;;;;;6.77;6.27;;;23.20;66.00;;;;;;5079331;28;20455;-66
2023/11/20 06:44:51;;;;;;;7.53;6.80;;;23.20;66.30;;;;;;5093716;28;20764;-67
2023/11/20 06:47:17;;;;;;;9.13;6.03;;;23.30;67.00;;;;;;5093818;28;20599;-66
2023/11/20 06:49:46;;;;;;;11.00;7.37;;;23.30;67.80;;;;;;5093877;28;21029;-70
2023/11/20 06:52:13;;;;;;;17.20;10.43;;;23.30;72.70;;;;;;5089037;28;20542;-70
2023/11/20 06:54:40;;;;;;;12.33;9.07;;;23.40;77.70;;;;;;5073476;28;20486;-71
2023/11/20 06:57:07;;;;;;;18.67;8.53;;;23.40;79.40;;;;;;5073300;28;20482;-66
2023/11/20 06:59:34;;;;;;;16.27;10.17;;;23.40;79.70;;;;;;5073445;28;20528;-66
2023/11/20 07:02:01;;;;;;;9.40;8.53;;;23.50;80.60;;;;;;5074885;28;20493;-66
2023/11/20 07:04:28;;;;;;;14.97;7.90;;;23.50;80.60;;;;;;5093609;28;20474;-66
2023/11/20 07:06:56;;;;;;;13.83;8.10;;;23.50;80.50;;;;;;5093388;28;20478;-67
2023/11/20 07:09:28;;;;;;;19.00;8.60;;;23.60;81.50;;;;;;5093284;28;20477;-67
2023/11/20 07:11:56;;;;;;;16.63;8.43;;;23.50;80.90;;;;;;5092788;28;20496;-67
2023/11/20 07:14:22;;;;;;;9.17;8.27;;;23.60;81.40;;;;;;5093068;28;20466;-66
2023/11/20 07:16:49;;;;;;;13.70;9.30;;;23.60;81.50;;;;;;5093342;28;20467;-67
2023/11/20 07:19:16;;;;;;;8.10;7.30;;;23.60;82.40;;;;;;5092366;28;20470;-66
2023/11/20 07:21:44;;;;;;;8.93;7.60;;;23.70;80.80;;;;;;5083296;28;20463;-67
2023/11/20 07:24:13;;;;;;;11.27;7.93;;;23.70;80.90;;;;;;5072728;28;20459;-69
2023/11/20 07:26:40;;;;;;;20.00;8.80;;;23.70;80.40;;;;;;5072994;28;20482;-69
2023/11/20 07:29:08;;;;;;;8.77;8.17;;;23.70;80.70;;;;;;5072845;28;21121;-71
2023/11/20 07:31:37;;;;;;;12.87;7.73;;;23.60;76.60;;;;;;5080699;28;20522;-71
2023/11/20 07:34:06;;;;;;;20.00;8.73;;;23.70;78.00;;;;;;5092840;28;20446;-66
2023/11/20 07:36:33;;;;;;;12.10;8.43;;;23.70;79.20;;;;;;5092790;28;20447;-66
2023/11/20 07:39:00;;;;;;;12.97;10.50;;;23.70;78.80;;;;;;5091284;28;20445;-65
2023/11/20 07:41:29;;;;;;;9.23;6.90;;;23.70;78.60;;;;;;5093056;28;20473;-65
2023/11/20 07:43:56;;;;;;;9.83;7.40;;;23.70;78.20;;;;;;5092587;28;20458;-65
2023/11/20 07:46:23;;;;;;;10.20;6.60;;;23.80;77.70;;;;;;5092431;28;20589;-65
2023/11/20 07:48:50;;;;;;;8.13;7.07;;;23.80;77.30;;;;;;5092225;28;20485;-65
2023/11/20 07:51:18;;;;;;;8.80;6.97;;;23.80;76.60;;;;;;5092497;28;20453;-65
2023/11/20 07:53:45;;;;;;;7.63;6.30;;;23.80;76.00;;;;;;5092444;28;20549;-65
2023/11/20 07:56:13;;;;;;;11.00;7.07;;;23.80;75.70;;;;;;5092293;28;20473;-65
2023/11/20 07:58:41;;;;;;;15.23;7.53;;;23.80;75.30;;;;;;5092403;28;20672;-65
2023/11/20 08:01:08;;;;;;;7.83;7.07;;;23.80;75.00;;;;;;5092359;28;20893;-65
2023/11/20 08:03:35;;;;;;;9.80;7.37;;;23.90;74.80;;;;;;5092317;28;20486;-65
2023/11/20 08:06:02;;;;;;;7.97;7.17;;;23.80;74.40;;;;;;5092080;28;20529;-65
2023/11/20 08:08:29;;;;;;;7.77;7.07;;;23.80;74.10;;;;;;5092481;28;20434;-65
2023/11/20 08:10:56;;;;;;;8.10;7.00;;;23.90;74.00;;;;;;5092186;28;20529;-65
2023/11/20 08:13:24;;;;;;;7.43;6.90;;;23.80;73.60;;;;;;5092175;28;20490;-65
2023/11/20 08:15:52;;;;;;;7.90;7.20;;;23.80;73.40;;;;;;5092001;28;20470;-66
2023/11/20 08:18:19;;;;;;;7.10;6.70;;;23.80;73.20;;;;;;5092024;28;20469;-66
2023/11/20 08:20:46;;;;;;;7.60;6.90;;;23.80;73.00;;;;;;5092042;28;20473;-66
2023/11/20 08:23:12;;;;;;;8.80;6.20;;;23.80;72.80;;;;;;5092142;28;20493;-66
2023/11/20 08:25:39;;;;;;;6.90;6.40;;;23.80;72.50;;;;;;5091946;28;20477;-66
2023/11/20 08:28:07;;;;;;;7.73;7.20;;;23.80;72.30;;;;;;5091973;28;20565;-66
2023/11/20 08:30:34;;;;;;;9.80;7.27;;;23.80;72.20;;;;;;5091514;28;20442;-66
2023/11/20 08:33:02;;;;;;;7.67;7.07;;;23.80;72.00;;;;;;5091647;28;20496;-66
2023/11/20 08:35:29;;;;;;;8.63;7.83;;;23.80;71.80;;;;;;5092021;28;20502;-66
2023/11/20 08:37:57;;;;;;;8.73;8.00;;;23.80;71.70;;;;;;5091732;28;20956;-66
2023/11/20 08:40:24;;;;;;;8.47;7.43;;;23.80;71.50;;;;;;5091701;28;20450;-66
2023/11/20 08:42:53;;;;;;;8.87;7.20;;;23.80;71.40;;;;;;5111296;28;20453;-66
2023/11/20 08:45:20;;;;;;;8.13;6.83;;;23.80;71.30;;;;;;5112271;28;20476;-66
2023/11/20 08:47:47;;;;;;;6.73;6.33;;;23.80;71.10;;;;;;5111947;28;20564;-66
2023/11/20 08:50:15;;;;;;;7.93;7.30;;;23.80;70.90;;;;;;5111940;28;20492;-66
2023/11/20 08:52:42;;;;;;;7.70;7.20;;;23.80;70.80;;;;;;5112212;28;20492;-66
2023/11/20 08:55:09;;;;;;;7.37;7.03;;;23.80;70.70;;;;;;5112055;28;20853;-66
2023/11/20 08:57:36;;;;;;;7.40;6.83;;;23.80;70.50;;;;;;5111967;28;20429;-66
2023/11/20 09:00:04;;;;;;;7.20;6.80;;;23.70;70.30;;;;;;5111949;28;20524;-66
2023/11/20 09:02:31;;;;;;;7.73;7.03;;;23.70;70.30;;;;;;5111680;28;20544;-66
2023/11/20 09:04:58;;;;;;;7.50;7.10;;;23.70;70.10;;;;;;5112018;28;20857;-66
2023/11/20 09:07:26;;;;;;;7.53;6.83;;;23.70;70.10;;;;;;5111744;28;21070;-66
2023/11/20 09:09:53;;;;;;;7.77;7.10;;;23.70;70.00;;;;;;5111872;28;20479;-66
2023/11/20 09:12:20;;;;;;;7.20;6.70;;;23.70;69.90;;;;;;5111667;28;20496;-66
2023/11/20 09:14:47;;;;;;;6.83;6.23;;;23.70;69.80;;;;;;5097810;28;20470;-66
2023/11/20 09:17:14;;;;;;;6.90;6.40;;;23.70;69.70;;;;;;5091354;28;20487;-70
2023/11/20 09:19:41;;;;;;;7.70;7.13;;;23.60;71.90;;;;;;5091518;28;20447;-69
2023/11/20 09:22:08;;;;;;;5.87;5.60;;;23.50;72.50;;;;;;5091587;28;20490;-69
2023/11/20 09:24:45;;;;;;;7.10;6.47;;;23.50;72.80;;;;;;5092904;28;20470;-69
2023/11/20 09:27:20;;;;;;;6.20;5.90;;;23.50;72.90;;;;;;5091440;28;20482;-69
2023/11/20 09:29:48;;;;;;;6.63;6.30;;;23.50;72.60;;;;;;5091676;28;20441;-70
2023/11/20 09:32:16;;;;;;;5.90;5.50;;;23.50;73.00;;;;;;5092804;28;20466;-69
2023/11/20 09:34:47;;;;;;;6.27;5.90;;;23.50;72.60;;;;;;5111769;28;20808;-68
2023/11/20 09:37:16;;;;;;;8.23;7.73;;;23.40;72.50;;;;;;5112040;28;20476;-69
2023/11/20 09:39:55;;;;;;;9.20;8.50;;;23.40;72.40;;;;;;5111877;27;20481;-68
2023/11/20 09:42:26;;;;;;;7.57;6.57;;;23.40;72.60;;;;;;5110708;28;20453;-68
2023/11/20 09:45:00;;;;;;;7.43;6.93;;;23.50;72.80;;;;;;5095557;28;20442;-69
2023/11/20 09:47:30;;;;;;;6.57;6.17;;;23.50;72.40;;;;;;5095372;28;20480;-68
2023/11/20 09:50:02;;;;;;;6.83;6.47;;;23.50;72.00;;;;;;5095325;28;20529;-68
2023/11/20 09:52:38;;;;;;;6.30;6.10;;;23.50;71.80;;;;;;5095787;28;20466;-68
2023/11/20 09:55:12;;;;;;;6.97;6.57;;;23.50;71.50;;;;;;5095386;28;20442;-69
2023/11/20 09:57:42;;;;;;;7.13;6.53;;;23.50;71.40;;;;;;5095183;28;20939;-68
2023/11/20 10:00:17;;;;;;;6.53;5.87;;;23.60;71.30;;;;;;5094866;28;20439;-69
2023/11/20 10:02:45;;;;;;;6.63;6.13;;;23.60;71.30;;;;;;5094517;28;20466;-69
2023/11/20 10:05:18;;;;;;;7.40;7.10;;;23.60;70.90;;;;;;5104270;28;20525;-68
2023/11/20 10:07:48;;;;;;;6.77;6.30;;;23.60;70.60;;;;;;5115186;28;20488;-69
2023/11/20 10:10:20;;;;;;;6.27;6.03;;;23.60;71.70;;;;;;5115581;28;20469;-69
2023/11/20 10:12:54;;;;;;;7.10;6.90;;;23.60;70.50;;;;;;5115734;27;20464;-68
2023/11/20 10:15:23;;;;;;;6.33;6.10;;;23.60;70.10;;;;;;5115968;28;20441;-69
2023/11/20 10:17:50;;;;;;;5.70;5.50;;;23.60;70.10;;;;;;5101308;28;20470;-69
2023/11/20 10:20:18;;;;;;;6.70;6.40;;;23.60;70.10;;;;;;5094842;28;20430;-69
2023/11/20 10:22:49;;;;;;;6.60;6.30;;;23.60;70.30;;;;;;5094756;28;20470;-68
2023/11/20 10:25:26;;;;;;;5.80;5.63;;;23.60;70.00;;;;;;5100780;28;20438;-68
2023/11/20 10:27:54;;;;;;;5.77;5.53;;;23.60;70.10;;;;;;5114971;28;21014;-69
2023/11/20 10:30:24;;;;;;;5.63;5.43;;;23.60;70.10;;;;;;5115066;28;20433;-70
2023/11/20 10:32:52;;;;;;;5.70;5.27;;;23.60;70.10;;;;;;5114289;28;20489;-67
2023/11/20 10:35:20;;;;;;;5.97;5.77;;;23.70;70.20;;;;;;5107945;27;20470;-67
2023/11/20 10:37:57;;;;;;;6.00;5.67;;;23.60;69.80;;;;;;5094497;28;20446;-67
2023/11/20 10:40:36;;;;;;;6.00;5.80;;;23.60;69.60;;;;;;5094373;28;20458;-67
2023/11/20 10:43:05;;;;;;;5.60;5.40;;;23.60;69.50;;;;;;5093939;28;20469;-69
2023/11/20 10:45:36;;;;;;;5.70;5.30;;;23.70;69.70;;;;;;5092444;28;20438;-68
2023/11/20 10:48:07;;;;;;;6.00;5.70;;;23.60;69.50;;;;;;5106651;28;20848;-68
2023/11/20 10:50:36;;;;;;;5.20;5.00;;;23.60;69.20;;;;;;5114578;28;20801;-70
2023/11/20 10:53:10;;;;;;;7.07;6.77;;;23.50;70.60;;;;;;5114425;28;20468;-69
2023/11/20 10:55:58;;;;;;;7.37;7.07;;;23.50;71.80;;;;;;5114276;27;20438;-66
2023/11/20 10:58:31;;;;;;;6.97;6.77;;;23.50;71.90;;;;;;5099387;28;20430;-67
2023/11/20 11:01:01;;;;;;;6.70;6.30;;;23.50;72.30;;;;;;5093912;28;20809;-69
2023/11/20 11:03:31;;;;;;;6.30;6.00;;;23.50;72.80;;;;;;5093946;28;20461;-68
2023/11/20 11:06:04;;;;;;;7.33;6.33;;;23.60;72.20;;;;;;5093918;28;20445;-67
2023/11/20 11:08:32;;;;;;;6.87;6.63;;;23.60;71.80;;;;;;5093780;28;20478;-69
2023/11/20 11:11:10;;;;;;;6.37;6.07;;;23.70;71.50;;;;;;5111374;28;20442;-68
2023/11/20 11:13:38;;;;;;;6.10;5.90;;;23.70;71.10;;;;;;5113785;28;20465;-68
2023/11/20 11:16:12;;;;;;;5.97;5.67;;;23.70;71.20;;;;;;5114397;28;20498;-69
2023/11/20 11:18:55;;;;;;;7.80;5.80;;;23.70;70.50;;;;;;5114376;28;20475;-70
2023/11/20 11:21:30;;;;;;;5.77;5.43;;;23.70;70.10;;;;;;5112023;27;20441;-68
2023/11/20 11:23:58;;;;;;;5.30;5.00;;;23.70;70.90;;;;;;5092407;28;20549;-68
2023/11/20 11:26:34;;;;;;;5.90;5.70;;;23.60;71.20;;;;;;5093221;28;20806;-69
2023/11/20 11:29:08;;;;;;;6.43;6.03;;;23.60;71.40;;;;;;5093458;28;20980;-70
2023/11/20 11:31:48;;;;;;;5.90;5.67;;;23.60;71.50;;;;;;5093364;28;20929;-68
2023/11/20 11:34:45;;;;;;;5.77;5.30;;;23.60;71.70;;;;;;5100219;28;20437;-68
2023/11/20 11:37:29;;;;;;;5.87;5.57;;;23.50;71.80;;;;;;5115070;27;20476;-67
2023/11/20 11:40:09;;;;;;;5.60;5.50;;;23.50;72.40;;;;;;5113118;28;20503;-68
2023/11/20 11:42:48;;;;;;;6.80;6.50;;;23.50;72.40;;;;;;5110470;27;20532;-66
2023/11/20 11:45:20;;;;;;;5.97;5.77;;;23.50;72.30;;;;;;5103346;28;20430;-68
2023/11/20 11:50:31;;;;;;;5.93;5.80;;;23.60;72.00;;;;;;5113469;28;20465;-67
2023/11/20 11:53:02;;;;;;;5.93;5.73;;;23.60;72.00;;;;;;5103658;28;20981;-67
2023/11/20 11:55:39;;;;;;;5.53;5.43;;;23.60;72.00;;;;;;5092294;28;20439;-68
2023/11/20 11:58:15;;;;;;;6.07;5.77;;;23.60;71.90;;;;;;5092516;28;20469;-68
2023/11/20 12:00:46;;;;;;;5.90;5.60;;;23.60;71.70;;;;;;5092450;28;20941;-68
2023/11/20 12:03:13;;;;;;;6.60;6.30;;;23.50;71.90;;;;;;5091128;28;20562;-68
2023/11/20 12:06:16;;;;;;;6.77;6.43;;;23.50;71.90;;;;;;5106609;28;20461;-68
2023/11/20 12:08:44;;;;;;;6.10;5.90;;;23.50;72.10;;;;;;5112894;27;20477;-69
2023/11/20 12:11:11;;;;;;;5.77;5.57;;;23.50;72.60;;;;;;5112618;28;20450;-66
2023/11/20 12:14:05;;;;;;;6.20;6.00;;;23.60;73.50;;;;;;5112734;28;20465;-67
2023/11/20 12:16:36;;;;;;;5.87;5.77;;;23.60;74.70;;;;;;5092473;28;20486;-67
2023/11/20 12:19:04;;;;;;;6.17;5.97;;;23.70;74.80;;;;;;5092313;28;20443;-67
2023/11/20 12:21:31;;;;;;;6.27;5.93;;;23.70;74.80;;;;;;5092215;28;20438;-67
2023/11/20 12:23:58;;;;;;;6.00;5.70;;;23.70;74.60;;;;;;5092346;28;20866;-68
2023/11/20 12:26:27;;;;;;;6.00;5.50;;;23.70;74.20;;;;;;5111693;28;20941;-67
2023/11/20 12:28:56;;;;;;;6.37;6.27;;;23.80;74.10;;;;;;5112285;28;20564;-70
2023/11/20 12:31:24;;;;;;;5.70;5.40;;;23.80;73.40;;;;;;5112336;28;20472;-67
2023/11/20 12:33:50;;;;;;;5.83;5.73;;;23.80;74.00;;;;;;5100648;28;20833;-71
2023/11/20 12:36:19;;;;;;;5.93;5.83;;;23.80;74.60;;;;;;5092149;28;20489;-72
2023/11/20 12:38:46;;;;;;;6.07;5.83;;;23.80;75.10;;;;;;5091731;28;20507;-72
2023/11/20 12:41:15;;;;;;;6.70;6.30;;;23.90;74.20;;;;;;5092025;28;20442;-70
2023/11/20 12:43:42;;;;;;;5.97;5.73;;;23.90;71.80;;;;;;5102141;28;20457;-70
2023/11/20 12:46:15;;;;;;;5.53;5.33;;;23.80;71.50;;;;;;5112239;28;20473;-70
2023/11/20 12:48:43;;;;;;;5.80;5.60;;;23.70;72.20;;;;;;5112142;28;20480;-71
2023/11/20 12:51:10;;;;;;;6.67;6.37;;;23.70;72.40;;;;;;5112465;28;20858;-69
2023/11/20 12:53:38;;;;;;;5.50;5.23;;;23.70;72.90;;;;;;5112227;28;20491;-68
2023/11/20 12:56:07;;;;;;;5.43;5.17;;;23.70;72.60;;;;;;5101017;28;20439;-68